Station AGXC1 - 9410647 - Angels Gate, CA Image indicating link to RSS feed of recent meteorological observations for station AGXC1


Conditions at AGXC1 as of
(3:12 am PDT)
1012 GMT on 06/23/2024:
     

Click on the graph icon in the table below to see a time series plot of the last five days of that observation.

5-day plot - Wind Direction Wind Direction (WDIR): N ( 350 deg true )
5-day plot - Wind Speed Wind Speed (WSPD): 4.1 kts
5-day plot - Wind Gust Wind Gust (GST): 5.1 kts
5-day plot - Air Temperature Air Temperature (ATMP): 64.8 °F
5-day plot - Wind Speed at 10 Meters Wind Speed at 10 meters (WSPD10M): 3.9 kts
5-day plot - Wind Speed at 20 Meters Wind Speed at 20 meters (WSPD20M): 3.9 kts
5-day plot -  Wind Speed, Wind Gust and Atmospheric Pressure Combined plot of Wind Speed, Gust, and Air Pressure
NOS Water Level Observation Network Water Level
Previous observations
TIME
(PDT)
5-day plot - Wind Direction
WDIR
 
5-day plot - Wind Speed
WSPD
kts
5-day plot - Wind Gust
GST
kts
5-day plot - Wave Height
WVHT
ft
5-day plot - Dominant Wave Period
DPD
sec
5-day plot - Average Wave Period
APD
sec
5-day plot - Mean Wave Direction
MWD
 
5-day plot - Atmospheric Pressure
PRES
in
5-day plot - Pressure Tendency
PTDY
in
5-day plot - Air Temperature
ATMP
°F
5-day plot - Water Temperature
WTMP
°F
5-day plot - Dew Point
DEWP
°F
5-day plot - Salinity
SAL
psu
5-day plot - Visibility
VIS
nmi
5-day plot - Tide (above MLLW)
TIDE
ft
2024-06-23 03:06 am N 5.1 6.0------ 64.8-----
2024-06-23 03:00 am N 6.0 7.0------ 64.9-----
2024-06-23 02:48 am NE 1.9 4.1------------
2024-06-23 02:42 am- 0.0 1.0------ 64.8-----
2024-06-23 02:36 am W 1.9 2.9------ 64.4-----
2024-06-23 02:24 amWSW 4.1 5.1------ 64.0-----
2024-06-23 02:12 amWSW 4.1 5.1------ 64.6-----
2024-06-23 02:06 amWSW 4.1 5.1------ 64.6-----
2024-06-23 02:00 am W 4.1 5.1------ 64.8-----
2024-06-23 01:48 amWSW 4.1 5.1------ 65.1-----
2024-06-23 01:36 amWSW 4.1 5.1------ 64.8-----
2024-06-23 01:30 amWSW 4.1 5.1------ 64.8-----
2024-06-23 01:24 amWSW 4.1 5.1------ 64.8-----
2024-06-23 01:12 am SW 4.1 5.1------ 64.8-----
2024-06-23 01:00 amWSW 4.1 5.1------ 64.2-----
2024-06-23 12:54 amWSW 5.1 5.1------ 64.2-----
2024-06-23 12:48 amWSW 5.1 7.0------ 64.2-----
2024-06-23 12:36 am SW 5.1 6.0------ 64.6-----
2024-06-23 12:24 amWSW 5.1 7.0------ 64.9-----
2024-06-23 12:18 am SW 4.1 5.1------ 65.1-----
2024-06-23 12:12 amWSW 4.1 5.1------ 65.1-----
2024-06-23 12:00 am SW 2.9 5.1------ 65.8-----
2024-06-22 11:48 pmWSW 2.9 4.1------ 65.5-----
2024-06-22 11:42 pmWSW 2.9 4.1------ 65.3-----
2024-06-22 11:36 pm SW 2.9 5.1------ 65.5-----
2024-06-22 11:24 pmSSW 2.9 4.1------ 65.1-----
2024-06-22 11:12 pmSSW 1.9 2.9------ 65.7-----
2024-06-22 11:00 pm SW 1.9 2.9------ 66.0-----
2024-06-22 10:54 pm--------- 65.8-----
2024-06-22 10:48 pm--------- 66.0-----
2024-06-22 10:42 pm SW 4.1 5.1------ 65.8-----
2024-06-22 10:30 pm SW 2.9 4.1------ 66.4-----
2024-06-22 10:12 pmWSW 2.9 5.1------ 65.3-----
2024-06-22 10:06 pmWSW 5.1 6.0------ 65.3-----
2024-06-22 10:00 pmWSW 5.1 6.0------ 65.5-----
2024-06-22 09:48 pmWSW 5.1 7.0------ 65.7-----
2024-06-22 09:42 pmWSW 5.1 7.0------ 65.8-----
2024-06-22 09:36 pmWSW 5.1 7.0------ 65.7-----
2024-06-22 09:24 pmWSW 5.1 6.0------ 66.0-----
2024-06-22 09:12 pmWSW 5.1 6.0------ 66.4-----
2024-06-22 09:06 pmWSW 5.1 7.0------------
2024-06-22 09:00 pm W 6.0 7.0------------
2024-06-22 08:48 pmWSW 7.0 8.0------ 66.4-----
2024-06-22 08:36 pmWSW 6.0 8.0------ 66.6-----
2024-06-22 08:30 pm W 6.0 7.0------ 66.6-----
2024-06-22 08:24 pmWSW 7.0 8.9------ 66.4-----
2024-06-22 08:12 pmWSW 7.0 8.9------ 66.6-----
2024-06-22 08:00 pmWSW 8.0 9.9------ 66.7-----
2024-06-22 07:18 pmWSW 8.9 12.0------ 67.6-----
2024-06-22 07:12 pmWSW 8.9 12.0------ 67.5-----
2024-06-22 07:00 pmWSW 9.9 12.0------ 67.5-----
2024-06-22 06:48 pmWSW 8.9 12.0------------
2024-06-22 06:42 pmWSW 11.1 13.0------ 67.6-----
2024-06-22 06:36 pmWSW 9.9 12.0------ 67.8-----
2024-06-22 06:24 pmWSW 12.0 15.0------ 67.1-----
2024-06-22 06:18 pmWSW 13.0 15.0------------
2024-06-22 06:12 pmWSW 12.0 15.0------ 67.3-----
2024-06-22 06:06 pmWSW 12.0 15.9------ 67.3-----
2024-06-22 05:54 pmWSW 12.0 15.0------ 67.5-----
2024-06-22 05:42 pmWSW 12.0 15.0------ 67.6-----
2024-06-22 05:36 pmWSW 12.0 15.0------ 67.8-----
2024-06-22 05:30 pmWSW 11.1 14.0------ 68.4-----
2024-06-22 05:24 pmWSW 9.9 13.0------ 68.5-----
2024-06-22 05:18 pmWSW 11.1 14.0------ 68.4-----
2024-06-22 05:12 pmWSW 12.0 15.0------ 68.2-----
2024-06-22 05:06 pmWSW 13.0 17.1------ 68.0-----
2024-06-22 05:00 pmWSW 13.0 15.9------ 67.8-----
2024-06-22 04:48 pmWSW 11.1 15.0------ 68.7-----
2024-06-22 04:36 pmWSW 12.0 15.9------------
2024-06-22 04:24 pmWSW 11.1 14.0------------
2024-06-22 04:18 pmWSW 13.0 15.9------ 67.8-----
2024-06-22 04:12 pmWSW 13.0 15.9------ 67.8-----
2024-06-22 04:06 pmWSW 13.0 17.1------ 67.8-----
2024-06-22 04:00 pmWSW 13.0 15.9------ 68.0-----
2024-06-22 03:54 pmWSW 12.0 15.0------------
2024-06-22 03:48 pmWSW 13.0 15.9------------
2024-06-22 03:36 pmWSW 14.0 17.1------ 68.0-----
2024-06-22 03:24 pmWSW 13.0 17.1------ 68.2-----
2024-06-22 03:18 pmWSW 13.0 17.1------ 68.2-----
2024-06-22 03:12 pmWSW 13.0 15.9------ 68.0-----
2024-06-22 03:00 pmWSW 13.0 17.1------ 67.8-----
2024-06-22 02:48 pmWSW 14.0 18.1------ 67.3-----
2024-06-22 02:42 pmWSW 14.0 18.1------ 67.3-----
2024-06-22 02:36 pmWSW 14.0 18.1------ 67.5-----
2024-06-22 02:24 pmWSW 13.0 18.1------ 68.0-----
2024-06-22 02:12 pmWSW 14.0 19.0------------
2024-06-22 02:06 pmWSW 15.0 18.1------ 66.7-----
2024-06-22 02:00 pmWSW 15.0 19.0------ 66.6-----
2024-06-22 01:48 pmWSW 14.0 18.1------ 66.7-----
2024-06-22 01:36 pmWSW 15.0 18.1------------
2024-06-22 01:30 pmWSW 14.0 19.0------------
2024-06-22 01:24 pm--------- 66.4-----
2024-06-22 01:12 pm--------- 66.6-----
2024-06-22 01:00 pmWSW 14.0 19.0------------
2024-06-22 12:48 pm SW 14.0 19.0------ 65.7-----
2024-06-22 12:42 pm SW 14.0 17.1------ 66.0-----
2024-06-22 12:36 pm SW 14.0 17.1------ 65.8-----
2024-06-22 12:30 pm SW 14.0 18.1------ 65.8-----
2024-06-22 12:18 pm SW 13.0 17.1------ 65.8-----
2024-06-22 12:12 pmWSW 13.0 17.1------ 66.0-----
2024-06-22 12:06 pmWSW 14.0 17.1------ 66.0-----
2024-06-22 11:54 amWSW 13.0 17.1------ 65.8-----
2024-06-22 11:42 amWSW 14.0 18.1------ 65.5-----
2024-06-22 11:36 am SW 13.0 17.1------ 65.3-----
2024-06-22 11:30 am SW 13.0 17.1------ 65.3-----
2024-06-22 11:18 am SW 13.0 15.9------ 64.9-----
2024-06-22 11:06 am SW 11.1 14.0------ 65.5-----
2024-06-22 10:54 am SW 12.0 15.0------ 65.3-----
2024-06-22 10:48 am SW 11.1 14.0------ 65.7-----
2024-06-22 10:42 amWSW 9.9 14.0------ 65.7-----
2024-06-22 10:36 am SW 9.9 13.0------ 65.5-----
2024-06-22 10:30 amWSW 9.9 13.0------ 65.8-----
2024-06-22 10:24 amWSW 8.9 12.0------ 65.8-----
2024-06-22 10:18 amWSW 8.9 12.0------ 65.7-----
2024-06-22 10:06 am SW 8.9 11.1------ 64.9-----
2024-06-22 09:54 am SW 8.9 9.9------ 65.1-----
2024-06-22 09:48 am SW 7.0 9.9------ 65.5-----
2024-06-22 09:42 am SW 7.0 9.9------ 64.9-----
2024-06-22 09:30 am SW 7.0 8.9------ 64.8-----
2024-06-22 09:18 am SW 7.0 8.0------ 64.9-----
2024-06-22 09:12 am SW 7.0 8.0------ 64.9-----
2024-06-22 09:06 am SW 7.0 8.0------ 65.1-----
2024-06-22 08:54 am SW 7.0 8.0------ 65.1-----
2024-06-22 08:42 am SW 6.0 7.0------ 65.5-----
2024-06-22 08:36 am SW 6.0 7.0------------
2024-06-22 08:30 amSSW 4.1 6.0------------
2024-06-22 08:18 amSSW 2.9 4.1------ 66.2-----
2024-06-22 08:06 amSSW 2.9 4.1------ 66.4-----
2024-06-22 08:00 amSSW 2.9 4.1------ 66.4-----
2024-06-22 07:54 am S 1.9 2.9------ 66.0-----
2024-06-22 07:42 amSSW 1.9 2.9------ 64.9-----
2024-06-22 07:30 am SW 1.9 2.9------ 65.3-----
2024-06-22 07:24 am SW 1.9 1.9------ 65.3-----
2024-06-22 07:18 amWSW 1.9 2.9------ 65.1-----
2024-06-22 07:06 am--------- 64.8-----
2024-06-22 07:00 am--------- 64.4-----
2024-06-22 06:48 amWSW 1.9 2.9------------
2024-06-22 06:42 amWSW 1.9 2.9------ 63.9-----
2024-06-22 06:36 am W 2.9 2.9------ 63.5-----
2024-06-22 06:30 am W 2.9 2.9------ 63.5-----
2024-06-22 06:18 am W 4.1 5.1------ 63.3-----
2024-06-22 06:12 am W 4.1 5.1------ 63.1-----
2024-06-22 06:06 am W 2.9 4.1------ 63.5-----
2024-06-22 05:54 am W 2.9 2.9------ 63.5-----
2024-06-22 05:42 am W 1.9 2.9------ 63.7-----
2024-06-22 05:36 am W 1.9 1.9------------
2024-06-22 05:30 am W 1.9 1.9------------
2024-06-22 05:18 am W 1.0 1.9------------
2024-06-22 05:06 amWSW 1.9 2.9------ 64.2-----
2024-06-22 05:00 amWSW 1.9 1.9------ 64.2-----
2024-06-22 04:36 amSSW 1.9 2.9------ 64.2-----
2024-06-22 04:30 amSSW 1.9 2.9------ 63.9-----
2024-06-22 04:24 am- 0.0 1.9------ 63.7-----
2024-06-22 04:12 am NE 1.9 1.9------ 64.0-----
2024-06-22 04:00 am N 2.9 2.9------------
2024-06-22 03:54 am N 2.9 2.9------ 64.6-----
2024-06-22 03:48 am N 2.9 4.1------ 64.6-----
2024-06-22 03:36 am N 2.9 4.1------ 64.9-----
2024-06-22 03:24 amNNW 1.9 2.9------ 65.3-----
2024-06-22 03:18 amNNW 2.9 2.9------ 65.3-----
2024-06-22 03:12 amNNW 1.9 2.9------ 65.5-----
2024-06-22 03:00 am N 1.0 1.9------ 65.7-----